CheckWX is a tool to help pilots better visualize weather data.  It is not intended as a substitute for an official pre-flight weather briefing.

15:04:34 UTC

VTPH METAR
Hua Hin Airport
Hua Hin, Thailand
Current

4 hours ago

VTPH 281100Z VRB02KT 9999 FEW024 31/25 Q1007 NOSIG
Observed
May-28 @ 11:00 UTC
Wind
  • Variable at 2 KTS
Visibility
10,000+ meters
Flight Rules
VFR
Cloud Levels
  • Few at 2,400' AGL
Temperature
31°C / 88°F
Dewpoint
25°C / 77°F
Humidity
70%
Altimeter
29.73" Hg
Pressure
1006.92 hPa
Previous

5 hours ago

VTPH 281000Z VRB04KT 9999 FEW018 SCT030 32/25 Q1007 NOSIG
Observed
May-28 @ 10:00 UTC
Wind
  • Variable at 4 KTS
Visibility
10,000+ meters
Flight Rules
VFR
Cloud Levels
  • Few at 1,800' AGL
  • Scattered at 3,000' AGL
Temperature
32°C / 90°F
Dewpoint
25°C / 77°F
Humidity
67%
Altimeter
29.73" Hg
Pressure
1006.92 hPa
Previous

6 hours ago

VTPH 280900Z 15008KT 9999 -SHRA FEW018 32/25 Q1007 NOSIG
Observed
May-28 @ 09:00 UTC
Wind
  • 150° at 8 KTS
Visibility
10,000+ meters
Flight Rules
VFR
Conditions
Light Showers, Rain
Cloud Levels
  • Few at 1,800' AGL
Temperature
32°C / 90°F
Dewpoint
25°C / 77°F
Humidity
67%
Altimeter
29.73" Hg
Pressure
1006.92 hPa